Time;durP1;ratioP1;P1;durP2;ratioP2;P2;SDS_P1;SDS_P2;PMS_P1;PMS_P2;Temp;Humidity;BMP_temperature;BMP_pressure;BME280_temperature;BME280_humidity;BME280_pressure;Samples;Min_cycle;Max_cycle;Signal;HPM_P1;HPM_P2
2024/03/21 00:00:21;;;;;;;54.03;33.00;;;;;;;;;;5031761;28;20026;-81
2024/03/21 00:02:47;;;;;;;49.92;33.05;;;;;;;;;;5031129;28;20461;-80
2024/03/21 00:05:16;;;;;;;48.42;31.27;;;;;;;;;;5032711;28;20018;-81
2024/03/21 00:07:46;;;;;;;48.03;31.05;;;;;;;;;;5032680;28;20037;-80
2024/03/21 00:10:13;;;;;;;45.70;31.20;;;;;;;;;;5031830;28;20267;-80
2024/03/21 00:12:39;;;;;;;47.35;32.15;;;;;;;;;;5031054;28;20416;-80
2024/03/21 00:15:05;;;;;;;49.45;31.13;;;;;;;;;;5031687;28;20038;-81
2024/03/21 00:17:32;;;;;;;45.80;30.67;;;;;;;;;;5031105;28;20026;-80
2024/03/21 00:19:58;;;;;;;56.72;32.13;;;;;;;;;;5031252;28;20367;-80
2024/03/21 00:22:25;;;;;;;49.35;32.38;;;;;;;;;;5032968;28;20079;-79
2024/03/21 00:24:51;;;;;;;49.85;31.48;;;;;;;;;;5032741;28;20030;-79
2024/03/21 00:27:17;;;;;;;57.08;32.92;;;;;;;;;;5033340;28;20044;-79
2024/03/21 00:29:43;;;;;;;51.28;32.47;;;;;;;;;;5032595;28;20029;-80
2024/03/21 00:32:10;;;;;;;55.97;34.17;;;;;;;;;;5031052;28;20036;-79
2024/03/21 00:34:36;;;;;;;53.65;32.90;;;;;;;;;;5030866;28;20034;-79
2024/03/21 00:37:02;;;;;;;56.88;34.13;;;;;;;;;;5030727;28;20041;-80
2024/03/21 00:39:28;;;;;;;58.55;35.72;;;;;;;;;;5030885;28;20496;-79
2024/03/21 00:41:54;;;;;;;55.33;33.97;;;;;;;;;;5030624;28;20025;-79
2024/03/21 00:44:20;;;;;;;50.75;33.55;;;;;;;;;;5030931;28;20067;-79
2024/03/21 00:46:47;;;;;;;50.53;35.78;;;;;;;;;;5032755;28;20454;-80
2024/03/21 00:49:15;;;;;;;56.13;35.65;;;;;;;;;;5036091;28;20372;-80
2024/03/21 00:51:41;;;;;;;61.45;38.28;;;;;;;;;;5035804;28;20022;-81
2024/03/21 00:54:07;;;;;;;57.65;38.35;;;;;;;;;;5034640;28;20108;-80
2024/03/21 00:56:33;;;;;;;53.33;37.42;;;;;;;;;;5034655;28;20461;-80
2024/03/21 00:59:00;;;;;;;62.53;40.38;;;;;;;;;;5034603;28;20028;-80
2024/03/21 01:01:27;;;;;;;55.33;37.90;;;;;;;;;;5035600;28;20392;-81
2024/03/21 01:03:53;;;;;;;59.33;39.03;;;;;;;;;;5034327;28;20229;-81
2024/03/21 01:06:19;;;;;;;55.30;39.33;;;;;;;;;;5034587;28;20049;-82
2024/03/21 01:08:45;;;;;;;53.28;35.83;;;;;;;;;;5034386;28;20048;-82
2024/03/21 01:11:11;;;;;;;61.55;40.40;;;;;;;;;;5034627;28;20025;-80
2024/03/21 01:13:37;;;;;;;55.90;37.03;;;;;;;;;;5034493;28;20029;-80
2024/03/21 01:16:07;;;;;;;62.65;41.22;;;;;;;;;;5034105;28;20095;-82
2024/03/21 01:18:37;;;;;;;64.50;41.40;;;;;;;;;;5033989;28;20052;-81
2024/03/21 01:21:04;;;;;;;56.07;38.57;;;;;;;;;;5033824;28;20029;-81
2024/03/21 01:23:30;;;;;;;63.95;41.35;;;;;;;;;;5034223;28;20028;-81
2024/03/21 01:25:56;;;;;;;64.22;41.60;;;;;;;;;;5033939;28;20388;-80
2024/03/21 01:28:22;;;;;;;59.38;40.90;;;;;;;;;;5034119;28;20029;-81
2024/03/21 01:30:49;;;;;;;66.03;42.03;;;;;;;;;;5033864;28;20022;-81
2024/03/21 01:33:15;;;;;;;61.45;40.33;;;;;;;;;;5034130;28;20385;-82
2024/03/21 01:35:41;;;;;;;58.90;40.65;;;;;;;;;;5033763;28;20033;-79
2024/03/21 01:38:07;;;;;;;60.88;39.97;;;;;;;;;;5034722;28;20060;-79
2024/03/21 01:40:33;;;;;;;62.65;40.40;;;;;;;;;;5034853;28;20477;-78
2024/03/21 01:43:00;;;;;;;61.40;39.60;;;;;;;;;;5033338;28;20025;-79
2024/03/21 01:45:27;;;;;;;58.80;39.30;;;;;;;;;;5033518;28;20041;-78
2024/03/21 01:47:54;;;;;;;64.40;40.67;;;;;;;;;;5033239;28;20026;-78
2024/03/21 01:50:20;;;;;;;60.88;39.15;;;;;;;;;;5033684;28;20021;-78
2024/03/21 01:52:46;;;;;;;56.95;39.45;;;;;;;;;;5033386;28;20029;-79
2024/03/21 01:55:15;;;;;;;59.90;39.38;;;;;;;;;;5034973;28;20033;-79
2024/03/21 01:57:41;;;;;;;62.17;40.20;;;;;;;;;;5032612;28;20030;-79
2024/03/21 02:00:11;;;;;;;59.08;39.75;;;;;;;;;;5032976;28;20037;-79
2024/03/21 02:02:37;;;;;;;60.15;39.47;;;;;;;;;;5033205;28;20056;-79
2024/03/21 02:05:04;;;;;;;63.25;39.67;;;;;;;;;;5033049;28;20037;-79
2024/03/21 02:07:31;;;;;;;58.80;37.67;;;;;;;;;;5034838;28;20017;-78
2024/03/21 02:09:57;;;;;;;53.53;35.67;;;;;;;;;;5033285;28;20359;-80
2024/03/21 02:12:35;;;;;;;52.38;35.90;;;;;;;;;;5033478;28;20385;-81
2024/03/21 02:15:01;;;;;;;59.28;38.67;;;;;;;;;;5033381;28;20473;-81
2024/03/21 02:17:27;;;;;;;55.72;37.35;;;;;;;;;;5033770;28;20053;-81
2024/03/21 02:19:53;;;;;;;56.72;38.03;;;;;;;;;;5033442;28;20021;-81
2024/03/21 02:22:38;;;;;;;55.10;36.60;;;;;;;;;;5034209;28;20017;-80
2024/03/21 02:25:09;;;;;;;51.95;35.47;;;;;;;;;;5032609;28;20032;-80
2024/03/21 02:27:35;;;;;;;54.35;37.20;;;;;;;;;;5033112;28;20091;-80
2024/03/21 02:30:01;;;;;;;56.65;36.55;;;;;;;;;;5032861;28;20026;-80
2024/03/21 02:32:30;;;;;;;43.35;30.48;;;;;;;;;;5032925;28;20476;-79
2024/03/21 02:34:56;;;;;;;48.85;34.80;;;;;;;;;;5032337;28;20025;-80
2024/03/21 02:37:23;;;;;;;49.78;35.55;;;;;;;;;;5032847;28;20427;-80
2024/03/21 02:39:50;;;;;;;47.20;30.50;;;;;;;;;;5032468;28;20515;-80
2024/03/21 02:42:17;;;;;;;53.40;34.08;;;;;;;;;;5032804;28;20021;-80
2024/03/21 02:44:43;;;;;;;48.50;32.72;;;;;;;;;;5032625;28;20041;-80
2024/03/21 02:47:09;;;;;;;48.53;33.22;;;;;;;;;;5032235;28;20029;-80
2024/03/21 02:49:35;;;;;;;47.95;31.08;;;;;;;;;;5032736;28;20373;-80
2024/03/21 02:52:01;;;;;;;47.35;33.63;;;;;;;;;;5033697;28;20457;-79
2024/03/21 02:54:27;;;;;;;59.78;35.33;;;;;;;;;;5032539;28;20038;-79
2024/03/21 02:56:53;;;;;;;42.45;26.20;;;;;;;;;;5032480;28;20037;-80
2024/03/21 02:59:19;;;;;;;48.03;33.67;;;;;;;;;;5034489;28;20107;-80
2024/03/21 03:01:45;;;;;;;42.78;27.33;;;;;;;;;;5033344;28;20025;-81
2024/03/21 03:04:11;;;;;;;42.13;29.02;;;;;;;;;;5032744;28;20036;-78
2024/03/21 03:06:37;;;;;;;50.22;32.33;;;;;;;;;;5033340;28;20017;-78
2024/03/21 03:09:03;;;;;;;41.78;28.77;;;;;;;;;;5031995;28;20469;-78
2024/03/21 03:11:29;;;;;;;46.60;30.55;;;;;;;;;;5032115;28;20022;-79
2024/03/21 03:13:57;;;;;;;28.90;19.55;;;;;;;;;;5033226;28;20018;-79
2024/03/21 03:16:23;;;;;;;46.40;31.60;;;;;;;;;;5032075;28;20080;-79
2024/03/21 03:18:49;;;;;;;45.70;29.70;;;;;;;;;;5031700;28;20107;-78
2024/03/21 03:21:15;;;;;;;43.25;30.30;;;;;;;;;;5031985;28;20057;-78
2024/03/21 03:23:41;;;;;;;47.58;31.90;;;;;;;;;;5031921;28;20436;-78
2024/03/21 03:26:07;;;;;;;42.63;27.80;;;;;;;;;;5031611;28;20026;-78
2024/03/21 03:28:33;;;;;;;45.95;31.05;;;;;;;;;;5031791;28;20450;-82
2024/03/21 03:30:59;;;;;;;43.38;28.08;;;;;;;;;;5031653;28;20461;-80
2024/03/21 03:36:10;;;;;;;46.10;31.83;;;;;;;;;;5032839;28;20085;-81
2024/03/21 03:38:36;;;;;;;42.92;29.33;;;;;;;;;;5031680;28;20029;-81
2024/03/21 03:41:02;;;;;;;51.15;33.20;;;;;;;;;;5031529;28;20466;-80
2024/03/21 03:43:28;;;;;;;48.90;32.30;;;;;;;;;;5031490;28;20017;-80
2024/03/21 03:45:54;;;;;;;36.53;22.55;;;;;;;;;;5032684;28;20417;-80
2024/03/21 03:48:20;;;;;;;43.75;30.08;;;;;;;;;;5031535;28;20024;-81
2024/03/21 03:50:46;;;;;;;49.58;33.08;;;;;;;;;;5032681;28;20025;-81
2024/03/21 03:53:12;;;;;;;45.67;30.80;;;;;;;;;;5031327;28;20211;-80
2024/03/21 03:55:38;;;;;;;45.63;29.63;;;;;;;;;;5031312;28;20044;-79
2024/03/21 03:58:04;;;;;;;50.80;35.05;;;;;;;;;;5032921;28;20017;-80
2024/03/21 04:00:30;;;;;;;34.40;22.27;;;;;;;;;;5031308;28;20021;-80
2024/03/21 04:02:56;;;;;;;53.60;34.65;;;;;;;;;;5032474;28;20044;-80
2024/03/21 04:05:24;;;;;;;34.90;22.88;;;;;;;;;;5031509;28;20033;-81
2024/03/21 04:07:50;;;;;;;50.65;32.72;;;;;;;;;;5031539;28;20021;-79
2024/03/21 04:10:16;;;;;;;44.20;29.92;;;;;;;;;;5032284;28;20075;-81
2024/03/21 04:12:43;;;;;;;39.28;28.17;;;;;;;;;;5030851;28;20029;-80
2024/03/21 04:15:09;;;;;;;46.50;31.17;;;;;;;;;;5030689;28;20091;-81
2024/03/21 04:17:35;;;;;;;41.67;29.73;;;;;;;;;;5030842;28;20489;-80
2024/03/21 04:20:06;;;;;;;37.15;26.05;;;;;;;;;;5030900;28;20025;-80
2024/03/21 04:22:33;;;;;;;36.92;25.45;;;;;;;;;;5030570;28;20531;-80
2024/03/21 04:25:03;;;;;;;29.60;22.15;;;;;;;;;;5031778;28;20021;-80
2024/03/21 04:27:29;;;;;;;40.25;23.13;;;;;;;;;;5030672;28;20029;-78
2024/03/21 04:29:55;;;;;;;25.25;18.15;;;;;;;;;;5030459;28;20029;-79
2024/03/21 04:32:21;;;;;;;25.55;18.10;;;;;;;;;;5030772;28;20022;-79
2024/03/21 04:34:47;;;;;;;26.13;17.45;;;;;;;;;;5030539;28;20033;-80
2024/03/21 04:37:17;;;;;;;22.80;15.70;;;;;;;;;;5030481;28;20033;-79
2024/03/21 04:39:47;;;;;;;17.08;8.15;;;;;;;;;;5030912;28;20052;-78
2024/03/21 04:42:17;;;;;;;26.48;17.40;;;;;;;;;;5030688;28;20029;-80
2024/03/21 04:44:43;;;;;;;21.23;14.77;;;;;;;;;;5030766;28;20044;-81
2024/03/21 04:47:09;;;;;;;17.63;13.05;;;;;;;;;;5030493;28;20124;-81
2024/03/21 04:49:36;;;;;;;17.63;12.32;;;;;;;;;;5032176;28;20496;-78
2024/03/21 04:52:02;;;;;;;15.32;9.68;;;;;;;;;;5031852;28;20525;-81
2024/03/21 04:54:28;;;;;;;16.80;8.88;;;;;;;;;;5030521;28;20436;-81
2024/03/21 04:56:56;;;;;;;13.63;8.38;;;;;;;;;;5030703;28;20531;-81
2024/03/21 04:59:25;;;;;;;16.00;10.07;;;;;;;;;;5032061;28;20026;-81
2024/03/21 05:01:51;;;;;;;14.55;9.43;;;;;;;;;;5030797;28;20103;-81
2024/03/21 05:04:17;;;;;;;12.73;8.63;;;;;;;;;;5030439;28;20033;-81
2024/03/21 05:06:43;;;;;;;13.20;6.07;;;;;;;;;;5030707;28;20036;-80
2024/03/21 05:09:09;;;;;;;11.43;5.45;;;;;;;;;;5030553;28;20373;-80
2024/03/21 05:11:35;;;;;;;8.45;4.90;;;;;;;;;;5031722;28;20021;-79
2024/03/21 05:14:01;;;;;;;13.23;6.35;;;;;;;;;;5030369;28;20365;-78
2024/03/21 05:16:28;;;;;;;9.23;5.80;;;;;;;;;;5030648;28;20037;-81
2024/03/21 05:18:57;;;;;;;7.68;2.83;;;;;;;;;;5030512;28;20064;-79
2024/03/21 05:21:23;;;;;;;6.03;3.20;;;;;;;;;;5030563;28;20026;-79
2024/03/21 05:23:50;;;;;;;7.80;2.90;;;;;;;;;;5030537;28;20482;-78
2024/03/21 05:26:16;;;;;;;7.07;4.30;;;;;;;;;;5030470;28;20389;-79
2024/03/21 05:28:42;;;;;;;8.88;5.45;;;;;;;;;;5030271;28;20052;-79
2024/03/21 05:31:20;;;;;;;9.95;3.75;;;;;;;;;;5029806;28;20025;-79
2024/03/21 05:33:46;;;;;;;7.18;4.70;;;;;;;;;;5031441;28;20120;-80
2024/03/21 05:36:12;;;;;;;8.00;4.57;;;;;;;;;;5033448;28;20033;-78
2024/03/21 05:38:38;;;;;;;10.00;4.93;;;;;;;;;;5033809;28;20057;-79
2024/03/21 05:41:05;;;;;;;12.82;7.03;;;;;;;;;;5034232;28;20029;-79
2024/03/21 05:43:31;;;;;;;9.40;5.65;;;;;;;;;;5034322;28;20029;-78
2024/03/21 05:45:57;;;;;;;10.23;8.00;;;;;;;;;;5034037;28;20497;-79
2024/03/21 05:48:23;;;;;;;11.77;8.40;;;;;;;;;;5033469;28;20615;-78
2024/03/21 05:50:49;;;;;;;11.65;7.18;;;;;;;;;;5033504;28;20033;-78
2024/03/21 05:53:15;;;;;;;12.48;8.88;;;;;;;;;;5034372;28;20037;-79
2024/03/21 05:55:41;;;;;;;14.13;8.50;;;;;;;;;;5034238;28;20029;-78
2024/03/21 05:58:08;;;;;;;12.98;9.32;;;;;;;;;;5033847;28;20470;-78
2024/03/21 06:00:34;;;;;;;9.13;4.50;;;;;;;;;;5034204;28;20026;-78
2024/03/21 06:03:00;;;;;;;15.10;6.88;;;;;;;;;;5034194;28;20037;-78
2024/03/21 06:05:26;;;;;;;11.75;6.88;;;;;;;;;;5034653;28;20023;-79
2024/03/21 06:07:52;;;;;;;11.23;7.80;;;;;;;;;;5033736;28;20478;-78
2024/03/21 06:10:18;;;;;;;12.02;7.43;;;;;;;;;;5033324;28;20021;-79
2024/03/21 06:12:44;;;;;;;12.93;7.90;;;;;;;;;;5033199;28;20488;-77
2024/03/21 06:15:10;;;;;;;13.07;5.90;;;;;;;;;;5032922;28;20030;-78
2024/03/21 06:17:37;;;;;;;14.40;5.18;;;;;;;;;;5032767;28;20028;-78
2024/03/21 06:20:03;;;;;;;12.32;5.70;;;;;;;;;;5032877;28;20036;-78
2024/03/21 06:22:29;;;;;;;7.07;3.05;;;;;;;;;;5033250;28;20456;-79
2024/03/21 06:24:55;;;;;;;9.35;3.45;;;;;;;;;;5033333;28;20022;-79
2024/03/21 06:27:21;;;;;;;7.88;2.95;;;;;;;;;;5032736;28;20068;-80
2024/03/21 06:29:47;;;;;;;8.07;2.92;;;;;;;;;;5033340;28;20018;-78
2024/03/21 06:32:13;;;;;;;8.38;2.17;;;;;;;;;;5033031;28;20440;-79
2024/03/21 06:34:43;;;;;;;8.80;2.42;;;;;;;;;;5032870;28;20083;-80
2024/03/21 06:37:09;;;;;;;5.25;2.30;;;;;;;;;;5033392;28;20052;-80
2024/03/21 06:39:35;;;;;;;13.18;2.90;;;;;;;;;;5033168;28;20022;-80
2024/03/21 06:42:01;;;;;;;7.72;2.03;;;;;;;;;;5033349;28;20024;-80
2024/03/21 06:44:27;;;;;;;7.85;3.08;;;;;;;;;;5032853;28;20026;-80
2024/03/21 06:46:53;;;;;;;8.68;2.20;;;;;;;;;;5033133;28;20025;-79
2024/03/21 06:49:19;;;;;;;5.70;2.25;;;;;;;;;;5032793;28;20087;-79
2024/03/21 06:51:45;;;;;;;7.82;2.35;;;;;;;;;;5032466;28;20021;-81
2024/03/21 06:54:12;;;;;;;7.97;2.13;;;;;;;;;;5032192;28;20025;-80
2024/03/21 06:56:38;;;;;;;11.82;2.00;;;;;;;;;;5032463;28;20458;-79
2024/03/21 06:59:05;;;;;;;7.30;2.22;;;;;;;;;;5032082;28;20044;-79
2024/03/21 07:01:31;;;;;;;6.53;1.73;;;;;;;;;;5032343;28;20473;-81
2024/03/21 07:03:57;;;;;;;6.32;1.60;;;;;;;;;;5032212;28;20420;-80
2024/03/21 07:06:23;;;;;;;7.28;2.97;;;;;;;;;;5032014;28;20079;-80
2024/03/21 07:08:49;;;;;;;7.88;1.88;;;;;;;;;;5032307;28;20030;-80
2024/03/21 07:11:15;;;;;;;8.30;1.98;;;;;;;;;;5031538;28;20025;-79
2024/03/21 07:13:41;;;;;;;10.57;2.53;;;;;;;;;;5032076;28;20036;-80
2024/03/21 07:16:07;;;;;;;11.20;1.98;;;;;;;;;;5031790;28;20037;-80
2024/03/21 07:18:33;;;;;;;8.52;1.77;;;;;;;;;;5031639;28;20045;-80
2024/03/21 07:20:59;;;;;;;5.75;1.55;;;;;;;;;;5031822;28;20060;-79
2024/03/21 07:23:25;;;;;;;8.13;2.15;;;;;;;;;;5031775;28;20029;-80
2024/03/21 07:25:51;;;;;;;5.88;1.80;;;;;;;;;;5032007;28;20029;-80
2024/03/21 07:28:17;;;;;;;10.05;2.00;;;;;;;;;;5032239;28;20607;-80
2024/03/21 07:30:45;;;;;;;15.07;2.03;;;;;;;;;;5032718;28;20093;-80
2024/03/21 07:33:11;;;;;;;14.13;2.92;;;;;;;;;;5031705;28;20025;-80
2024/03/21 07:35:37;;;;;;;13.30;2.78;;;;;;;;;;5031681;28;20061;-81
2024/03/21 07:38:03;;;;;;;8.98;1.75;;;;;;;;;;5031752;28;20029;-81
2024/03/21 07:40:29;;;;;;;10.32;2.20;;;;;;;;;;5031527;28;20446;-81
2024/03/21 07:42:55;;;;;;;10.15;1.85;;;;;;;;;;5031769;28;20029;-81
2024/03/21 07:45:21;;;;;;;9.90;1.80;;;;;;;;;;5031224;28;20121;-81
2024/03/21 07:47:48;;;;;;;9.95;1.38;;;;;;;;;;5031505;28;20032;-81
2024/03/21 07:50:14;;;;;;;7.20;1.50;;;;;;;;;;5031292;28;20025;-81
2024/03/21 07:52:40;;;;;;;3.97;1.38;;;;;;;;;;5031583;28;20025;-80
2024/03/21 07:55:06;;;;;;;12.73;2.60;;;;;;;;;;5031279;28;20022;-81
2024/03/21 07:57:32;;;;;;;13.27;2.05;;;;;;;;;;5030716;28;20037;-81
2024/03/21 07:59:58;;;;;;;9.13;1.40;;;;;;;;;;5031470;28;20079;-80
2024/03/21 08:02:24;;;;;;;7.50;2.03;;;;;;;;;;5031068;28;20030;-80
2024/03/21 08:04:51;;;;;;;10.10;2.45;;;;;;;;;;5032590;28;20362;-81
2024/03/21 08:07:17;;;;;;;9.23;2.33;;;;;;;;;;5030955;28;20021;-81
2024/03/21 08:09:43;;;;;;;10.43;3.00;;;;;;;;;;5031242;28;20021;-82
2024/03/21 08:12:09;;;;;;;10.35;1.80;;;;;;;;;;5032398;28;20022;-81
2024/03/21 08:14:36;;;;;;;7.80;1.90;;;;;;;;;;5031155;28;20037;-80
2024/03/21 08:17:03;;;;;;;14.40;2.85;;;;;;;;;;5031190;28;20127;-81
2024/03/21 08:19:30;;;;;;;8.07;1.90;;;;;;;;;;5030677;28;20480;-81
2024/03/21 08:21:56;;;;;;;14.13;2.35;;;;;;;;;;5032448;28;20112;-80
2024/03/21 08:24:24;;;;;;;7.80;2.00;;;;;;;;;;5030609;28;20135;-81
2024/03/21 08:26:50;;;;;;;9.35;2.45;;;;;;;;;;5031983;28;20022;-80
2024/03/21 08:29:16;;;;;;;7.72;1.25;;;;;;;;;;5030757;28;20113;-81
2024/03/21 08:31:45;;;;;;;5.28;1.17;;;;;;;;;;5030951;28;20026;-81
2024/03/21 08:34:11;;;;;;;7.20;1.60;;;;;;;;;;5030458;28;20021;-81
2024/03/21 08:36:37;;;;;;;8.40;2.15;;;;;;;;;;5030569;28;20033;-80
2024/03/21 08:39:03;;;;;;;11.55;1.98;;;;;;;;;;5030673;28;20084;-80
2024/03/21 08:41:29;;;;;;;7.03;1.65;;;;;;;;;;5030369;28;20018;-80
2024/03/21 08:43:55;;;;;;;8.32;2.08;;;;;;;;;;5032108;28;20033;-81
2024/03/21 08:46:21;;;;;;;5.63;1.00;;;;;;;;;;5030559;28;20025;-82
2024/03/21 08:48:47;;;;;;;8.10;2.15;;;;;;;;;;5030635;28;20373;-81
2024/03/21 08:51:13;;;;;;;9.63;2.40;;;;;;;;;;5030533;28;20041;-80
2024/03/21 08:53:39;;;;;;;7.28;1.75;;;;;;;;;;5030686;28;20109;-80
2024/03/21 08:56:06;;;;;;;13.88;2.35;;;;;;;;;;5030738;28;20022;-79
2024/03/21 08:58:32;;;;;;;6.78;2.08;;;;;;;;;;5030701;28;20036;-81
2024/03/21 09:00:58;;;;;;;10.07;2.45;;;;;;;;;;5030694;28;20022;-82
2024/03/21 09:03:24;;;;;;;12.15;3.20;;;;;;;;;;5030278;28;20034;-82
2024/03/21 09:05:50;;;;;;;10.23;2.65;;;;;;;;;;5030705;28;20029;-81
2024/03/21 09:08:16;;;;;;;7.40;1.60;;;;;;;;;;5032959;28;20022;-82
2024/03/21 09:10:42;;;;;;;7.63;1.58;;;;;;;;;;5034483;28;20063;-82
2024/03/21 09:13:08;;;;;;;12.02;2.75;;;;;;;;;;5034496;28;20030;-84
2024/03/21 09:15:34;;;;;;;8.57;1.90;;;;;;;;;;5034232;28;20025;-80
2024/03/21 09:18:00;;;;;;;9.50;2.28;;;;;;;;;;5034520;28;20028;-85
2024/03/21 09:20:26;;;;;;;13.95;2.90;;;;;;;;;;5034328;28;20028;-84
2024/03/21 09:22:52;;;;;;;7.00;2.85;;;;;;;;;;5034744;28;20363;-81
2024/03/21 09:25:18;;;;;;;13.85;2.72;;;;;;;;;;5034373;28;20022;-85
2024/03/21 09:27:44;;;;;;;7.15;2.58;;;;;;;;;;5034760;28;20385;-81
2024/03/21 09:30:11;;;;;;;8.35;1.88;;;;;;;;;;5035845;28;20024;-84
2024/03/21 09:32:36;;;;;;;14.48;2.42;;;;;;;;;;5034182;28;20037;-85
2024/03/21 09:35:04;;;;;;;6.30;1.77;;;;;;;;;;5034186;28;20025;-86
2024/03/21 09:37:30;;;;;;;9.05;2.90;;;;;;;;;;5033988;28;20022;-83
2024/03/21 09:39:59;;;;;;;9.27;2.65;;;;;;;;;;5034807;28;20065;-82
2024/03/21 09:42:25;;;;;;;11.10;2.78;;;;;;;;;;5035586;28;20028;-82
2024/03/21 09:44:56;;;;;;;10.55;2.80;;;;;;;;;;5035549;28;20025;-82
2024/03/21 09:47:27;;;;;;;9.65;2.20;;;;;;;;;;5033255;28;20025;-82
2024/03/21 09:49:53;;;;;;;9.45;2.58;;;;;;;;;;5033512;28;20120;-83
2024/03/21 09:52:22;;;;;;;11.10;4.18;;;;;;;;;;5034522;28;20128;-83
2024/03/21 09:54:48;;;;;;;8.02;2.08;;;;;;;;;;5033320;28;20029;-83
2024/03/21 09:57:14;;;;;;;9.85;3.03;;;;;;;;;;5033426;28;20032;-83
2024/03/21 09:59:41;;;;;;;8.80;2.67;;;;;;;;;;5034022;28;20029;-84
2024/03/21 10:02:14;;;;;;;12.23;3.05;;;;;;;;;;5033781;28;20550;-84
2024/03/21 10:04:41;;;;;;;9.48;2.33;;;;;;;;;;5033306;28;20029;-85
2024/03/21 10:07:16;;;;;;;12.50;2.88;;;;;;;;;;5033607;28;20021;-84
2024/03/21 10:09:42;;;;;;;6.90;2.58;;;;;;;;;;5033631;28;20032;-84
2024/03/21 10:12:08;;;;;;;9.60;3.03;;;;;;;;;;5033661;28;20030;-83
2024/03/21 10:14:34;;;;;;;10.50;3.17;;;;;;;;;;5033132;28;20076;-84
2024/03/21 10:17:03;;;;;;;7.07;3.00;;;;;;;;;;5033295;28;20022;-83
2024/03/21 10:19:29;;;;;;;9.82;3.33;;;;;;;;;;5032317;28;20057;-83
2024/03/21 10:21:55;;;;;;;10.50;3.95;;;;;;;;;;5034723;28;20028;-83
2024/03/21 10:24:21;;;;;;;7.97;2.00;;;;;;;;;;5033140;28;20018;-83
2024/03/21 10:26:47;;;;;;;8.27;2.95;;;;;;;;;;5033341;28;20026;-83
2024/03/21 10:29:14;;;;;;;8.80;2.60;;;;;;;;;;5033317;28;20029;-83
2024/03/21 10:31:41;;;;;;;13.57;3.03;;;;;;;;;;5032771;28;20025;-85
2024/03/21 10:34:10;;;;;;;8.40;1.90;;;;;;;;;;5032976;28;20022;-84
2024/03/21 10:36:36;;;;;;;7.70;2.15;;;;;;;;;;5032812;28;20181;-84
2024/03/21 10:39:03;;;;;;;6.88;3.08;;;;;;;;;;5032909;28;20128;-84
2024/03/21 10:41:29;;;;;;;7.68;2.65;;;;;;;;;;5032769;28;20029;-84
2024/03/21 10:43:57;;;;;;;8.98;2.67;;;;;;;;;;5032938;28;20025;-85
2024/03/21 10:46:24;;;;;;;13.90;2.92;;;;;;;;;;5032507;28;20484;-84
2024/03/21 10:48:50;;;;;;;7.40;2.05;;;;;;;;;;5032665;28;20079;-84
2024/03/21 10:51:18;;;;;;;8.15;2.30;;;;;;;;;;5034045;28;20036;-85
2024/03/21 10:53:56;;;;;;;8.82;2.83;;;;;;;;;;5032718;28;20026;-84
2024/03/21 10:56:24;;;;;;;8.13;2.70;;;;;;;;;;5032393;28;20037;-84
2024/03/21 10:58:55;;;;;;;11.98;3.20;;;;;;;;;;5032513;28;20072;-85
2024/03/21 11:01:21;;;;;;;7.00;2.30;;;;;;;;;;5032288;28;20469;-85
2024/03/21 11:03:56;;;;;;;14.30;2.65;;;;;;;;;;5032673;28;20033;-85
2024/03/21 11:06:25;;;;;;;9.82;2.22;;;;;;;;;;5032557;28;20188;-84
2024/03/21 11:08:53;;;;;;;7.90;2.45;;;;;;;;;;5032360;28;20053;-84
2024/03/21 11:11:19;;;;;;;8.45;1.95;;;;;;;;;;5033612;28;20032;-83
2024/03/21 11:13:46;;;;;;;9.48;2.15;;;;;;;;;;5032011;28;20026;-84
2024/03/21 11:16:12;;;;;;;8.25;2.30;;;;;;;;;;5032193;28;20369;-84
2024/03/21 11:18:41;;;;;;;8.73;2.83;;;;;;;;;;5031895;28;20050;-84
2024/03/21 11:21:16;;;;;;;7.60;1.80;;;;;;;;;;5033320;28;20022;-85
2024/03/21 11:23:44;;;;;;;7.63;2.40;;;;;;;;;;5031975;28;20072;-84
2024/03/21 11:26:14;;;;;;;6.57;2.08;;;;;;;;;;5032085;28;20037;-86
2024/03/21 11:28:45;;;;;;;11.32;3.00;;;;;;;;;;5033349;28;20029;-86
2024/03/21 11:31:24;;;;;;;11.45;2.53;;;;;;;;;;5030765;28;20212;-86
2024/03/21 11:33:51;;;;;;;7.72;3.03;;;;;;;;;;5032152;28;20084;-85
2024/03/21 11:36:20;;;;;;;11.43;2.95;;;;;;;;;;5033119;28;20045;-85
2024/03/21 11:38:50;;;;;;;9.73;2.50;;;;;;;;;;5032298;28;20021;-83
2024/03/21 11:41:16;;;;;;;;;;;;;;;;;;5033560;28;20276;-85
2024/03/21 11:43:42;;;;;;;5.88;1.95;;;;;;;;;;5032734;28;19916;-85
2024/03/21 11:46:09;;;;;;;8.18;2.60;;;;;;;;;;5033456;28;20083;-85
2024/03/21 11:48:38;;;;;;;6.78;2.05;;;;;;;;;;5033739;28;20021;-85
2024/03/21 11:51:05;;;;;;;8.02;2.72;;;;;;;;;;5032151;28;20087;-84
2024/03/21 11:53:31;;;;;;;8.02;2.20;;;;;;;;;;5016481;28;20044;-85
2024/03/21 11:55:58;;;;;;;9.23;3.03;;;;;;;;;;5033237;28;20021;-84
2024/03/21 11:58:24;;;;;;;9.27;2.25;;;;;;;;;;5032236;28;20075;-85
2024/03/21 12:00:50;;;;;;;8.52;2.33;;;;;;;;;;5031268;28;20029;-84
2024/03/21 12:03:19;;;;;;;11.63;2.50;;;;;;;;;;5031125;28;20058;-84
2024/03/21 12:05:45;;;;;;;9.65;1.75;;;;;;;;;;5031109;28;20036;-85
2024/03/21 12:08:11;;;;;;;10.52;2.40;;;;;;;;;;5031390;28;20084;-86
2024/03/21 12:10:37;;;;;;;9.48;2.55;;;;;;;;;;5032184;28;20123;-87
2024/03/21 12:13:03;;;;;;;5.95;2.15;;;;;;;;;;5031850;28;20519;-86
2024/03/21 12:15:29;;;;;;;6.15;1.90;;;;;;;;;;5030924;28;20032;-86
2024/03/21 12:17:55;;;;;;;11.38;2.60;;;;;;;;;;5031344;28;20416;-86
2024/03/21 12:20:23;;;;;;;7.30;2.20;;;;;;;;;;5031351;28;20030;-85
2024/03/21 12:22:49;;;;;;;9.70;2.03;;;;;;;;;;5031480;28;20032;-86
2024/03/21 12:25:15;;;;;;;7.65;2.33;;;;;;;;;;5031144;28;20025;-87
2024/03/21 12:27:41;;;;;;;7.68;1.95;;;;;;;;;;5030725;28;20048;-86
2024/03/21 12:30:08;;;;;;;10.60;1.98;;;;;;;;;;5031095;28;20091;-86
2024/03/21 12:32:34;;;;;;;4.45;1.50;;;;;;;;;;5031509;28;20121;-85
2024/03/21 12:35:00;;;;;;;9.02;2.08;;;;;;;;;;5030862;28;20477;-85
2024/03/21 12:37:26;;;;;;;5.80;1.88;;;;;;;;;;5032288;28;20049;-84
2024/03/21 12:39:52;;;;;;;8.27;2.22;;;;;;;;;;5030925;28;20025;-87
2024/03/21 12:42:18;;;;;;;11.35;2.80;;;;;;;;;;5032443;28;20025;-85
2024/03/21 12:44:44;;;;;;;7.80;2.58;;;;;;;;;;5035086;28;20029;-86
2024/03/21 12:47:10;;;;;;;8.85;2.35;;;;;;;;;;5035157;28;20055;-86
2024/03/21 12:49:37;;;;;;;11.02;2.55;;;;;;;;;;5034956;28;20025;-86
2024/03/21 12:52:03;;;;;;;7.22;2.75;;;;;;;;;;5035180;28;20029;-87
2024/03/21 12:54:29;;;;;;;10.07;3.08;;;;;;;;;;5036376;28;20184;-86
2024/03/21 12:56:55;;;;;;;8.93;3.13;;;;;;;;;;5035483;28;20542;-86
2024/03/21 12:59:21;;;;;;;10.35;3.55;;;;;;;;;;5035022;28;20488;-85
2024/03/21 13:01:47;;;;;;;11.23;2.95;;;;;;;;;;5034612;28;20087;-87
2024/03/21 13:04:13;;;;;;;6.70;2.38;;;;;;;;;;5035114;28;20033;-86
2024/03/21 13:06:40;;;;;;;11.30;2.78;;;;;;;;;;5034250;28;20025;-83
2024/03/21 13:09:07;;;;;;;8.85;2.45;;;;;;;;;;5038160;28;20078;-84
2024/03/21 13:11:33;;;;;;;11.50;3.53;;;;;;;;;;5034882;28;20117;-85
2024/03/21 13:13:59;;;;;;;11.73;4.22;;;;;;;;;;5034512;28;20057;-85
2024/03/21 13:16:25;;;;;;;5.63;2.63;;;;;;;;;;5034602;28;20030;-86
2024/03/21 13:18:51;;;;;;;9.95;4.38;;;;;;;;;;5034154;28;20047;-86
2024/03/21 13:21:17;;;;;;;9.05;4.03;;;;;;;;;;5034544;28;20025;-86
2024/03/21 13:23:43;;;;;;;10.45;3.33;;;;;;;;;;5035047;28;20108;-85
2024/03/21 13:26:10;;;;;;;6.15;3.20;;;;;;;;;;5034511;28;20029;-87
2024/03/21 13:28:36;;;;;;;7.03;2.90;;;;;;;;;;5034332;28;20087;-87
2024/03/21 13:31:03;;;;;;;7.68;3.45;;;;;;;;;;5034770;28;20021;-86
2024/03/21 13:33:35;;;;;;;7.30;3.53;;;;;;;;;;5034366;28;20021;-86
2024/03/21 13:36:01;;;;;;;7.68;3.22;;;;;;;;;;5034646;28;20033;-86
2024/03/21 13:38:29;;;;;;;11.32;4.55;;;;;;;;;;5034143;28;20021;-87
2024/03/21 13:40:55;;;;;;;10.90;4.45;;;;;;;;;;5034451;28;20021;-86
2024/03/21 13:43:23;;;;;;;11.02;5.32;;;;;;;;;;5034617;28;20410;-86
2024/03/21 13:45:50;;;;;;;8.25;4.68;;;;;;;;;;5035801;28;20068;-86
2024/03/21 13:48:16;;;;;;;11.32;5.03;;;;;;;;;;5034057;28;20028;-85
2024/03/21 13:50:43;;;;;;;10.57;4.80;;;;;;;;;;5033970;28;20025;-86
2024/03/21 13:53:12;;;;;;;10.07;5.65;;;;;;;;;;5033856;28;20121;-86
2024/03/21 13:55:38;;;;;;;11.30;5.50;;;;;;;;;;5033176;28;20037;-86
2024/03/21 13:58:04;;;;;;;12.52;5.38;;;;;;;;;;5034294;28;20039;-85
2024/03/21 14:00:30;;;;;;;7.20;5.22;;;;;;;;;;5034235;28;20117;-86
2024/03/21 14:03:01;;;;;;;11.35;6.00;;;;;;;;;;5040452;28;20112;-87
2024/03/21 14:05:27;;;;;;;11.45;6.30;;;;;;;;;;5054509;28;20029;-86
2024/03/21 14:07:54;;;;;;;10.95;7.35;;;;;;;;;;5054834;28;20025;-86
2024/03/21 14:10:20;;;;;;;16.35;7.38;;;;;;;;;;5056910;28;20472;-85
2024/03/21 14:12:48;;;;;;;14.63;7.60;;;;;;;;;;5054198;28;20021;-85
2024/03/21 14:15:14;;;;;;;15.35;7.38;;;;;;;;;;5048349;28;20048;-86
2024/03/21 14:17:41;;;;;;;11.88;7.65;;;;;;;;;;5050604;28;20025;-85
2024/03/21 14:20:08;;;;;;;12.57;7.18;;;;;;;;;;5039773;28;20535;-86
2024/03/21 14:22:43;;;;;;;10.63;7.88;;;;;;;;;;5047010;28;20038;-85
2024/03/21 14:25:09;;;;;;;13.65;7.68;;;;;;;;;;5050288;28;20040;-85
2024/03/21 14:27:35;;;;;;;12.73;8.50;;;;;;;;;;5053015;28;20029;-85
2024/03/21 14:30:05;;;;;;;10.00;7.35;;;;;;;;;;5053822;28;20059;-85